createdAt,value
2019-01-18T00:01:23.976Z,85.58
2019-01-18T00:05:25.220Z,85.30
2019-01-18T00:09:26.558Z,85.25
2019-01-18T00:13:27.898Z,85.14
2019-01-18T00:17:29.817Z,85.01
2019-01-18T00:21:31.976Z,84.79
2019-01-18T00:25:33.968Z,84.72
2019-01-18T00:29:35.223Z,84.61
2019-01-18T00:33:36.520Z,84.49
2019-01-18T00:37:37.726Z,84.48
2019-01-18T00:41:39.001Z,84.40
2019-01-18T00:45:40.522Z,84.45
2019-01-18T00:49:41.793Z,84.44
2019-01-18T00:53:43.096Z,84.30
2019-01-18T00:57:44.826Z,84.21
2019-01-18T01:01:46.127Z,84.21
2019-01-18T01:05:47.431Z,84.20
2019-01-18T01:09:48.647Z,84.12
2019-01-18T01:13:50.292Z,83.98
2019-01-18T01:17:51.948Z,83.95
2019-01-18T01:21:53.265Z,83.95
2019-01-18T01:25:54.465Z,84.97
2019-01-18T01:29:55.890Z,84.82
2019-01-18T01:33:57.099Z,84.85
2019-01-18T01:45:47.240Z,84.68
2019-01-18T01:49:48.494Z,84.35
2019-01-18T01:53:49.935Z,84.35
2019-01-18T01:57:51.150Z,84.18
2019-01-18T02:01:52.369Z,84.18
2019-01-18T02:05:53.571Z,84.39
2019-01-18T02:09:54.631Z,84.14
2019-01-18T02:13:55.847Z,84.08
2019-01-18T02:17:57.162Z,84.25
2019-01-18T02:21:58.645Z,84.16
2019-01-18T02:25:59.692Z,84.13
2019-01-18T02:30:01.282Z,84.11
2019-01-18T02:42:15.530Z,84.38
2019-01-18T02:46:17.191Z,84.32
2019-01-18T02:50:19.841Z,84.35
2019-01-18T02:54:20.840Z,84.56
2019-01-18T02:58:22.147Z,84.49
2019-01-18T03:02:23.176Z,84.36
2019-01-18T03:06:24.756Z,84.27
2019-01-18T03:10:28.142Z,84.35
2019-01-18T03:14:29.186Z,84.29
2019-01-18T03:18:31.530Z,84.29
2019-01-18T03:22:32.590Z,84.37
2019-01-18T03:26:33.863Z,84.11
2019-01-18T03:30:35.562Z,84.08
2019-01-18T03:34:36.500Z,83.99
2019-01-18T03:38:37.565Z,83.97
2019-01-18T03:42:38.517Z,84.01
2019-01-18T03:46:39.801Z,83.93
2019-01-18T03:50:41.022Z,83.98
2019-01-18T03:54:42.109Z,84.15
2019-01-18T03:58:43.530Z,84.27
2019-01-18T04:02:44.580Z,84.24
2019-01-18T04:10:58.958Z,84.30
2019-01-18T04:15:00.236Z,84.21
2019-01-18T04:19:03.759Z,84.11
2019-01-18T04:23:06.298Z,84.00
2019-01-18T04:27:07.613Z,84.00
2019-01-18T04:31:09.033Z,84.37
2019-01-18T04:35:10.538Z,84.13
2019-01-18T04:39:11.782Z,84.53
2019-01-18T04:43:13.092Z,84.20
2019-01-18T04:47:14.329Z,84.13
2019-01-18T04:51:15.599Z,83.94
2019-01-18T04:55:16.784Z,84.04
2019-01-18T04:59:17.983Z,83.96
2019-01-18T05:03:19.192Z,84.11
2019-01-18T05:07:20.509Z,83.81
2019-01-18T05:11:21.488Z,83.88
2019-01-18T05:15:24.884Z,84.11
2019-01-18T05:19:27.113Z,84.32
2019-01-18T05:23:28.260Z,84.31
2019-01-18T05:27:29.689Z,84.42
2019-01-18T05:31:31.050Z,84.26
2019-01-18T05:35:32.077Z,84.83
2019-01-18T05:39:33.153Z,84.08
2019-01-18T05:43:34.133Z,84.40
2019-01-18T05:47:35.153Z,84.54
2019-01-18T05:51:36.163Z,84.49
2019-01-18T05:55:37.218Z,84.35
2019-01-18T05:59:38.218Z,83.83
2019-01-18T06:03:39.262Z,84.26
2019-01-18T06:07:40.293Z,83.63
2019-01-18T06:11:41.381Z,83.38
2019-01-18T06:15:42.393Z,83.60
2019-01-18T06:19:43.443Z,83.92
2019-01-18T06:23:44.398Z,84.62
2019-01-18T06:27:45.538Z,84.91
2019-01-18T06:31:46.808Z,84.93
2019-01-18T06:35:47.838Z,84.78
2019-01-18T06:39:48.856Z,85.32
2019-01-18T06:43:50.038Z,85.50
2019-01-18T06:47:51.083Z,85.52
2019-01-18T06:51:52.198Z,85.50
2019-01-18T06:55:53.181Z,85.27
2019-01-18T06:59:54.768Z,85.17
2019-01-18T07:03:55.729Z,85.42
2019-01-18T07:07:56.795Z,85.31
2019-01-18T07:11:57.759Z,85.07
2019-01-18T07:15:58.948Z,85.16
2019-01-18T07:19:59.944Z,85.64
2019-01-18T07:24:01.019Z,85.96
2019-01-18T07:28:02.070Z,85.26
2019-01-18T07:32:03.096Z,85.46
2019-01-18T07:36:04.335Z,85.76
2019-01-18T07:40:05.681Z,85.80
2019-01-18T07:44:06.906Z,86.04
2019-01-18T07:48:08.323Z,85.82
2019-01-18T07:52:09.341Z,85.42
2019-01-18T07:56:10.371Z,85.65
2019-01-18T08:00:16.399Z,85.24
2019-01-18T08:04:17.465Z,85.29
2019-01-18T08:08:18.425Z,84.81
2019-01-18T08:12:20.210Z,84.72
2019-01-18T08:16:21.226Z,83.99
2019-01-18T08:26:16.381Z,84.18
2019-01-18T08:30:19.891Z,84.23
2019-01-18T08:34:20.996Z,83.68
2019-01-18T08:38:22.342Z,83.67
2019-01-18T08:42:23.431Z,83.97
2019-01-18T08:46:24.416Z,83.79
2019-01-18T08:50:25.541Z,83.75
2019-01-18T08:54:26.618Z,83.69
2019-01-18T08:58:27.651Z,83.52
2019-01-18T09:02:28.641Z,83.54
2019-01-18T09:06:29.713Z,83.50
2019-01-18T09:10:31.160Z,83.42
2019-01-18T09:14:32.113Z,83.77
2019-01-18T09:18:33.091Z,83.32
2019-01-18T09:22:34.117Z,83.26
2019-01-18T09:26:35.100Z,83.26
2019-01-18T09:30:36.487Z,83.13
2019-01-18T09:34:37.472Z,83.16
2019-01-18T09:38:38.583Z,83.16
2019-01-18T09:42:40.143Z,82.83
2019-01-18T09:46:41.176Z,82.66
2019-01-18T09:50:42.175Z,82.66
2019-01-18T09:54:43.220Z,82.76
2019-01-18T09:58:44.207Z,83.28
2019-01-18T10:02:45.231Z,83.45
2019-01-18T10:06:46.196Z,83.44
2019-01-18T10:10:47.281Z,83.10
2019-01-18T10:14:48.305Z,83.10
2019-01-18T10:18:49.336Z,83.03
2019-01-18T10:22:50.411Z,82.93
2019-01-18T10:26:51.460Z,83.58
2019-01-18T10:30:52.435Z,83.58
2019-01-18T10:34:53.477Z,84.35
2019-01-18T10:38:54.430Z,83.86
2019-01-18T10:42:55.626Z,82.53
2019-01-18T10:46:56.859Z,82.90
2019-01-18T10:50:57.877Z,82.56
2019-01-18T10:54:58.876Z,82.56
2019-01-18T10:58:59.931Z,81.76
2019-01-18T11:03:00.858Z,81.76
2019-01-18T11:07:01.871Z,82.41
2019-01-18T11:11:03.916Z,82.20
2019-01-18T11:15:05.068Z,82.14
2019-01-18T11:19:06.073Z,82.13
2019-01-18T11:23:07.099Z,81.85
2019-01-18T11:36:39.614Z,83.48
2019-01-18T11:40:41.660Z,83.48
2019-01-18T11:44:42.825Z,83.13
2019-01-18T11:48:44.205Z,84.00
2019-01-18T12:01:40.225Z,83.77
2019-01-18T12:05:41.720Z,83.58
2019-01-18T12:09:42.834Z,83.19
2019-01-18T12:23:24.385Z,83.25
2019-01-18T12:27:25.810Z,83.31
2019-01-18T12:31:26.890Z,83.25
2019-01-18T12:35:27.866Z,83.06
2019-01-18T12:39:29.428Z,82.90
2019-01-18T12:54:25.250Z,83.27
2019-01-18T12:58:27.408Z,83.27
2019-01-18T13:02:35.182Z,83.36
2019-01-18T13:06:32.061Z,83.36
2019-01-18T13:10:35.662Z,83.67
2019-01-18T13:14:36.634Z,83.32
2019-01-18T13:18:38.165Z,83.54
2019-01-18T13:22:39.135Z,83.63
2019-01-18T13:26:40.133Z,84.29
2019-01-18T13:30:42.800Z,84.52
2019-01-18T13:34:43.797Z,84.56
2019-01-18T13:38:44.930Z,84.29
2019-01-18T13:42:47.986Z,83.74
2019-01-18T13:46:48.951Z,83.93
2019-01-18T13:50:50.513Z,83.93
2019-01-18T13:54:51.502Z,83.57
2019-01-18T13:58:53.211Z,83.86
2019-01-18T14:02:54.498Z,84.29
2019-01-18T14:06:56.260Z,84.30
2019-01-18T14:10:57.414Z,84.85
2019-01-18T14:14:58.574Z,85.57
2019-01-18T14:18:59.523Z,84.90
2019-01-18T14:23:00.544Z,85.18
2019-01-18T14:27:01.529Z,85.48
2019-01-18T14:31:03.603Z,85.03
2019-01-18T14:35:04.645Z,84.62
2019-01-18T14:39:09.525Z,85.04
2019-01-18T14:43:10.503Z,84.97
2019-01-18T14:47:11.539Z,84.99
2019-01-18T14:51:12.539Z,84.45
2019-01-18T14:55:14.094Z,84.79
2019-01-18T14:59:15.179Z,84.30
2019-01-18T15:03:17.034Z,84.86
2019-01-18T15:07:17.983Z,84.66
2019-01-18T15:11:20.025Z,84.75
2019-01-18T15:15:22.102Z,85.66
2019-01-18T15:19:23.606Z,84.33
2019-01-18T15:23:24.562Z,84.32
2019-01-18T15:27:26.137Z,84.71
2019-01-18T15:31:27.127Z,83.87
2019-01-18T15:35:35.464Z,84.76
2019-01-18T15:39:36.482Z,84.54
2019-01-18T15:43:38.678Z,84.62
2019-01-18T15:47:39.668Z,84.59
2019-01-18T15:51:40.769Z,85.08
2019-01-18T15:55:42.178Z,84.59
2019-01-18T15:59:44.743Z,84.29
2019-01-18T16:03:45.753Z,84.00
2019-01-18T16:07:46.780Z,84.73
2019-01-18T16:11:48.523Z,84.29
2019-01-18T16:15:54.126Z,84.82
2019-01-18T16:19:55.108Z,85.47
2019-01-18T16:23:57.403Z,84.66
2019-01-18T16:27:58.352Z,84.01
2019-01-18T16:31:59.328Z,84.40
